Cedar Grove, Indiana
Current Conditions -  °F | °C
As of 2:35 PM on Friday 28 Nov 2014 (Local Time) from KI67 Reporting Station
Clear Clear  
Wind Chill: 27°   Ceiling: Unl
Heat Index: 34°   Visibility: 10mi
Dew Point: 18°   Wind: 8mph
Humidity: 52%   Direction: 210°SSW
Pressure: 30.26"   Gusts: NA
Location:  39.36°N, 84.94°W
Report Text: KI67 281935Z AUTO 21007KT 10SM CLR 01/M08 A3026 RMK AO1
Loading
Personal Weather Stations






























Interactive Weather Map New forecast layout! Learn more

10-Day Weather Forecast

Advertisements
Track Severe Weather on mobile